Time;durP1;ratioP1;P1;durP2;ratioP2;P2;SDS_P1;SDS_P2;PMS_P1;PMS_P2;Temp;Humidity;BMP_temperature;BMP_pressure;BME280_temperature;BME280_humidity;BME280_pressure;Samples;Min_cycle;Max_cycle;Signal;HPM_P1;HPM_P2
2022/03/10 00:01:20;;;;;;;;;;;;;;;17.52;37.23;101176.75;5078733;28;974;-60
2022/03/10 00:03:45;;;;;;;;;;;;;;;17.29;37.52;101183.53;5079409;28;902;-59
2022/03/10 00:06:11;;;;;;;;;;;;;;;16.71;38.60;101173.31;5111791;28;951;-59
2022/03/10 00:08:36;;;;;;;;;;;;;;;16.42;39.33;101173.66;5078778;28;826;-60
2022/03/10 00:11:02;;;;;;;;;;;;;;;16.45;39.19;101175.03;5079221;28;857;-59
2022/03/10 00:13:30;;;;;;;;;;;;;;;16.83;38.40;101175.84;5079139;28;784;-59
2022/03/10 00:15:55;;;;;;;;;;;;;;;17.32;37.38;101169.25;5078320;28;1934;-59
2022/03/10 00:18:21;;;;;;;;;;;;;;;16.91;38.18;101177.28;5079086;28;805;-59
2022/03/10 00:20:47;;;;;;;;;;;;;;;16.60;38.89;101174.31;5079006;28;848;-59
2022/03/10 00:23:12;;;;;;;;;;;;;;;16.52;39.12;101169.31;5078660;28;1145;-60
2022/03/10 00:25:38;;;;;;;;;;;;;;;16.99;38.43;101168.56;5078728;28;849;-59
2022/03/10 00:28:03;;;;;;;;;;;;;;;17.35;37.53;101165.97;5078836;28;779;-59
2022/03/10 00:30:29;;;;;;;;;;;;;;;17.52;37.03;101174.00;5078007;28;912;-60
2022/03/10 00:32:54;;;;;;;;;;;;;;;16.98;38.09;101177.06;5079190;28;891;-59
2022/03/10 00:35:20;;;;;;;;;;;;;;;16.65;38.59;101176.28;5078424;28;1988;-60
2022/03/10 00:37:46;;;;;;;;;;;;;;;16.70;38.76;101170.81;5078542;28;790;-59
2022/03/10 00:40:12;;;;;;;;;;;;;;;16.72;38.90;101177.72;5078156;28;809;-59
2022/03/10 00:42:38;;;;;;;;;;;;;;;17.37;37.47;101174.75;5078838;28;824;-59
2022/03/10 00:45:04;;;;;;;;;;;;;;;17.45;37.37;101177.00;5078552;28;920;-59
2022/03/10 00:47:30;;;;;;;;;;;;;;;17.47;37.38;101170.41;5078262;28;762;-59
2022/03/10 00:49:55;;;;;;;;;;;;;;;17.27;37.44;101169.22;5078910;28;919;-60
2022/03/10 00:52:21;;;;;;;;;;;;;;;16.88;38.46;101177.81;5077991;28;808;-60
2022/03/10 00:54:46;;;;;;;;;;;;;;;16.68;38.61;101179.31;5078423;28;1969;-60
2022/03/10 00:57:12;;;;;;;;;;;;;;;16.95;38.37;101172.09;5079057;28;781;-59
2022/03/10 00:59:37;;;;;;;;;;;;;;;17.44;37.35;101180.00;5077914;28;761;-59
2022/03/10 01:02:03;;;;;;;;;;;;;;;17.59;36.72;101177.31;5078223;28;826;-60
2022/03/10 01:04:28;;;;;;;;;;;;;;;17.13;37.64;101168.91;5110486;28;1023;-61
2022/03/10 01:06:54;;;;;;;;;;;;;;;16.73;38.69;101179.38;5078104;28;943;-61
2022/03/10 01:09:19;;;;;;;;;;;;;;;16.62;38.95;101174.06;5077368;28;836;-60
2022/03/10 01:11:44;;;;;;;;;;;;;;;16.76;38.53;101178.03;5078385;28;1128;-60
2022/03/10 01:14:10;;;;;;;;;;;;;;;17.40;37.54;101179.75;5077846;28;1905;-60
2022/03/10 01:16:36;;;;;;;;;;;;;;;17.56;36.87;101185.28;5077483;28;1345;-59
2022/03/10 01:19:01;;;;;;;;;;;;;;;17.58;36.84;101170.16;5077657;28;868;-59
2022/03/10 01:21:27;;;;;;;;;;;;;;;17.44;37.01;101183.56;5077756;28;858;-59
2022/03/10 01:23:53;;;;;;;;;;;;;;;17.07;37.94;101170.78;5077865;28;777;-59
2022/03/10 01:26:18;;;;;;;;;;;;;;;16.60;38.98;101174.31;5077895;28;821;-59
2022/03/10 01:28:44;;;;;;;;;;;;;;;16.56;39.19;101167.72;5077203;28;926;-59
2022/03/10 01:31:09;;;;;;;;;;;;;;;16.57;39.12;101177.59;5077249;28;853;-59
2022/03/10 01:33:34;;;;;;;;;;;;;;;17.09;38.10;101176.84;5077674;28;1901;-59
2022/03/10 01:36:00;;;;;;;;;;;;;;;17.49;37.04;101173.69;5077927;28;768;-58
2022/03/10 01:38:25;;;;;;;;;;;;;;;17.61;36.83;101177.03;5077216;28;883;-59
2022/03/10 01:40:51;;;;;;;;;;;;;;;17.08;38.06;101172.47;5077826;28;786;-59
2022/03/10 01:43:16;;;;;;;;;;;;;;;16.67;38.81;101183.16;5077189;28;884;-59
2022/03/10 01:45:42;;;;;;;;;;;;;;;16.49;39.06;101189.06;5077236;28;827;-58
2022/03/10 01:48:07;;;;;;;;;;;;;;;16.54;39.13;101189.13;5077483;28;829;-59
2022/03/10 01:50:33;;;;;;;;;;;;;;;17.05;38.06;101183.97;5077365;28;857;-59
2022/03/10 01:52:59;;;;;;;;;;;;;;;17.38;37.47;101176.41;5077184;28;1101;-59
2022/03/10 01:55:25;;;;;;;;;;;;;;;17.25;37.36;101180.50;5109503;28;1906;-60
2022/03/10 01:57:50;;;;;;;;;;;;;;;16.77;38.60;101177.75;5077984;28;758;-59
2022/03/10 02:00:16;;;;;;;;;;;;;;;16.69;38.95;101172.75;5077267;28;828;-59
2022/03/10 02:02:41;;;;;;;;;;;;;;;16.68;38.92;101173.03;5076910;28;750;-59
2022/03/10 02:05:07;;;;;;;;;;;;;;;16.62;39.01;101172.16;5077199;28;932;-58
2022/03/10 02:10:17;;;;;;;;;;;;;;;17.18;38.04;101179.91;5076226;28;832;-59
2022/03/10 02:12:46;;;;;;;;;;;;;;;17.35;37.50;101176.97;5109688;28;797;-59
2022/03/10 02:18:04;;;;;;;;;;;;;;;16.82;38.48;101181.63;5060645;28;1302;-60
2022/03/10 02:20:29;;;;;;;;;;;;;;;16.55;39.14;101190.75;5075982;28;734;-59
2022/03/10 02:22:55;;;;;;;;;;;;;;;16.48;39.29;101179.16;5076434;28;847;-59
2022/03/10 02:25:21;;;;;;;;;;;;;;;16.54;39.39;101180.88;5076956;28;812;-59
2022/03/10 02:27:48;;;;;;;;;;;;;;;17.44;37.21;101182.75;5076737;28;973;-59
2022/03/10 02:30:13;;;;;;;;;;;;;;;17.52;37.12;101186.94;5076637;28;876;-59
2022/03/10 02:32:39;;;;;;;;;;;;;;;16.87;38.50;101195.38;5076045;28;962;-60
2022/03/10 02:35:04;;;;;;;;;;;;;;;16.49;39.23;101189.06;5076154;28;2026;-59
2022/03/10 02:37:31;;;;;;;;;;;;;;;16.57;39.16;101188.59;5076776;28;1064;-59
2022/03/10 02:39:56;;;;;;;;;;;;;;;16.86;38.55;101201.97;5076220;28;949;-60
2022/03/10 02:42:22;;;;;;;;;;;;;;;17.40;37.25;101201.72;5076355;28;806;-60
2022/03/10 02:44:48;;;;;;;;;;;;;;;17.24;37.64;101191.75;5076593;28;827;-59
2022/03/10 02:47:13;;;;;;;;;;;;;;;16.70;38.64;101203.78;5075630;28;776;-59
2022/03/10 02:49:39;;;;;;;;;;;;;;;16.55;39.18;101198.97;5069647;28;869;-59
2022/03/10 02:52:05;;;;;;;;;;;;;;;16.58;39.03;101206.72;5075901;28;852;-59
2022/03/10 02:54:30;;;;;;;;;;;;;;;17.24;37.81;101191.75;5076390;28;1984;-59
2022/03/10 02:56:56;;;;;;;;;;;;;;;17.65;36.91;101196.59;5075236;28;789;-59
2022/03/10 02:59:21;;;;;;;;;;;;;;;17.24;37.62;101189.84;5075090;28;816;-59
2022/03/10 03:01:47;;;;;;;;;;;;;;;16.76;38.39;101191.75;5075833;28;887;-59
2022/03/10 03:04:12;;;;;;;;;;;;;;;16.58;39.01;101195.75;5075906;28;865;-60
2022/03/10 03:06:38;;;;;;;;;;;;;;;16.64;38.93;101189.19;5076306;28;794;-59
2022/03/10 03:09:03;;;;;;;;;;;;;;;17.15;37.97;101193.34;5075940;28;828;-60
2022/03/10 03:11:29;;;;;;;;;;;;;;;17.52;37.20;101195.19;5075931;28;829;-61
2022/03/10 03:13:56;;;;;;;;;;;;;;;17.08;37.56;101193.59;5075314;28;1909;-60
2022/03/10 03:16:22;;;;;;;;;;;;;;;16.60;38.83;101196.28;5075423;28;1172;-59
2022/03/10 03:18:47;;;;;;;;;;;;;;;16.48;39.09;101192.91;5076079;28;748;-60
2022/03/10 03:21:13;;;;;;;;;;;;;;;16.64;38.74;101185.63;5108026;28;948;-61
2022/03/10 03:23:38;;;;;;;;;;;;;;;17.17;37.85;101202.19;5076134;28;881;-60
2022/03/10 03:26:04;;;;;;;;;;;;;;;17.42;37.25;101180.28;5075992;28;885;-60
2022/03/10 03:28:29;;;;;;;;;;;;;;;16.83;38.35;101191.50;5075595;28;792;-60
2022/03/10 03:30:55;;;;;;;;;;;;;;;16.47;39.02;101199.50;5075876;28;902;-60
2022/03/10 03:33:20;;;;;;;;;;;;;;;16.33;39.24;101188.94;5080011;28;829;-60
2022/03/10 03:35:47;;;;;;;;;;;;;;;17.51;37.37;101196.25;5079704;28;1979;-60
2022/03/10 03:38:12;;;;;;;;;;;;;;;19.43;33.35;101196.78;5080045;28;800;-60
2022/03/10 03:40:38;;;;;;;;;;;;;;;19.35;33.48;101200.13;5079723;28;822;-60
2022/03/10 03:43:03;;;;;;;;;;;;;;;20.45;31.53;101193.66;5079464;28;810;-59
2022/03/10 03:45:29;;;;;;;;;;;;;;;20.25;31.94;101197.44;5079563;28;824;-60
2022/03/10 03:47:54;;;;;;;;;;;;;;;19.08;33.74;101197.72;5080042;28;928;-59
2022/03/10 03:50:20;;;;;;;;;;;;;;;19.52;33.21;101197.03;5078777;28;862;-58
2022/03/10 03:52:45;;;;;;;;;;;;;;;19.55;33.14;101198.41;5078255;28;965;-59
2022/03/10 03:55:11;;;;;;;;;;;;;;;19.39;33.60;101203.97;5079884;28;1989;-59
2022/03/10 03:57:36;;;;;;;;;;;;;;;19.13;33.80;101201.31;5079055;28;820;-59
2022/03/10 04:00:02;;;;;;;;;;;;;;;18.63;34.95;101205.78;5079346;28;856;-58
2022/03/10 04:02:34;;;;;;;;;;;;;;;18.25;35.80;101195.06;5078534;28;997;-59
2022/03/10 04:04:59;;;;;;;;;;;;;;;17.70;36.85;101202.09;5078779;28;930;-58
2022/03/10 04:07:25;;;;;;;;;;;;;;;17.24;37.73;101192.56;5079502;28;754;-58
2022/03/10 04:09:50;;;;;;;;;;;;;;;17.12;37.87;101196.66;5079491;28;849;-58
2022/03/10 04:12:16;;;;;;;;;;;;;;;16.85;38.38;101201.13;5078748;28;829;-58
2022/03/10 04:14:41;;;;;;;;;;;;;;;16.67;38.88;101205.13;5079584;28;1910;-59
2022/03/10 04:17:07;;;;;;;;;;;;;;;16.99;38.66;101204.25;5077889;28;1079;-59
2022/03/10 04:19:32;;;;;;;;;;;;;;;17.56;37.31;101196.28;5079244;28;809;-58
2022/03/10 04:21:58;;;;;;;;;;;;;;;17.73;37.04;101196.88;5078923;28;857;-57
2022/03/10 04:24:23;;;;;;;;;;;;;;;17.74;36.71;101190.28;5079392;28;896;-58
2022/03/10 04:26:49;;;;;;;;;;;;;;;17.13;37.88;101195.56;5079032;28;796;-58
2022/03/10 04:29:14;;;;;;;;;;;;;;;16.73;38.81;101193.09;5078613;28;794;-60
2022/03/10 04:31:40;;;;;;;;;;;;;;;16.55;39.27;101190.75;5078449;28;783;-60
2022/03/10 04:34:06;;;;;;;;;;;;;;;16.63;39.21;101201.25;5078543;28;1970;-60
2022/03/10 04:36:32;;;;;;;;;;;;;;;16.71;38.90;101198.00;5079163;28;801;-60
2022/03/10 04:38:57;;;;;;;;;;;;;;;16.82;38.89;101201.66;5078990;28;1478;-60
2022/03/10 04:41:23;;;;;;;;;;;;;;;17.18;37.93;101201.06;5078035;28;853;-61
2022/03/10 04:43:48;;;;;;;;;;;;;;;17.51;37.26;101212.75;5077809;28;764;-60
2022/03/10 04:46:13;;;;;;;;;;;;;;;17.18;37.58;101212.91;5078230;28;950;-61
2022/03/10 04:48:39;;;;;;;;;;;;;;;16.73;38.63;101231.53;5078288;28;821;-59
2022/03/10 04:51:05;;;;;;;;;;;;;;;16.62;38.88;101226.22;5078634;28;789;-60
2022/03/10 04:53:30;;;;;;;;;;;;;;;16.70;38.67;101225.75;5078733;28;875;-63
2022/03/10 04:55:56;;;;;;;;;;;;;;;16.72;38.53;101229.06;5078207;28;1918;-60
2022/03/10 04:58:21;;;;;;;;;;;;;;;17.14;37.74;101243.91;5078126;28;849;-59
2022/03/10 05:00:47;;;;;;;;;;;;;;;17.49;36.68;101237.78;5078254;28;917;-62
2022/03/10 05:03:13;;;;;;;;;;;;;;;17.38;37.14;101236.09;5076449;28;1089;-59
2022/03/10 05:05:38;;;;;;;;;;;;;;;16.86;37.98;101238.50;5078536;28;908;-60
2022/03/10 05:08:04;;;;;;;;;;;;;;;16.54;38.43;101244.84;5077880;28;853;-61
2022/03/10 05:10:29;;;;;;;;;;;;;;;16.98;38.09;101240.25;5078359;28;834;-61
2022/03/10 05:12:56;;;;;;;;;;;;;;;17.55;36.76;101241.38;5077956;28;975;-60
2022/03/10 05:15:23;;;;;;;;;;;;;;;17.01;37.36;101242.47;5078170;28;1980;-61
2022/03/10 05:17:48;;;;;;;;;;;;;;;16.57;38.49;101243.50;5077743;28;990;-61
2022/03/10 05:20:14;;;;;;;;;;;;;;;16.32;39.05;101241.34;5077592;28;845;-60
2022/03/10 05:22:46;;;;;;;;;;;;;;;16.87;38.17;101242.06;5078428;28;833;-60
2022/03/10 05:25:12;;;;;;;;;;;;;;;17.48;36.71;101240.81;5077957;28;809;-60
2022/03/10 05:27:37;;;;;;;;;;;;;;;17.24;36.70;101247.53;5077953;28;952;-61
2022/03/10 05:30:04;;;;;;;;;;;;;;;16.64;37.85;101246.84;5077887;28;796;-62
2022/03/10 05:32:29;;;;;;;;;;;;;;;16.38;38.03;101260.38;5077103;28;1033;-61
2022/03/10 05:34:55;;;;;;;;;;;;;;;16.35;38.41;101263.59;5077517;28;1914;-61
2022/03/10 05:37:20;;;;;;;;;;;;;;;17.07;36.98;101253.22;5077731;28;821;-62
2022/03/10 05:39:46;;;;;;;;;;;;;;;17.40;36.21;101267.72;5078074;28;805;-62
2022/03/10 05:42:11;;;;;;;;;;;;;;;16.97;36.95;101264.16;5077710;28;866;-61
2022/03/10 05:44:37;;;;;;;;;;;;;;;16.42;37.87;101274.38;5077329;28;826;-61
2022/03/10 05:47:04;;;;;;;;;;;;;;;16.40;38.15;101271.06;5077455;28;750;-61
2022/03/10 05:49:29;;;;;;;;;;;;;;;16.44;38.21;101266.72;5077454;28;856;-63
2022/03/10 05:51:55;;;;;;;;;;;;;;;17.03;37.07;101271.31;5077472;28;892;-61
2022/03/10 05:54:20;;;;;;;;;;;;;;;17.44;36.04;101282.56;5077103;28;1910;-61
2022/03/10 05:56:46;;;;;;;;;;;;;;;17.15;36.40;101264.81;5077319;28;861;-62
2022/03/10 05:59:12;;;;;;;;;;;;;;;16.56;37.76;101269.28;5076789;28;838;-62
2022/03/10 06:01:37;;;;;;;;;;;;;;;16.46;38.14;101274.69;5077021;28;927;-61
2022/03/10 06:04:03;;;;;;;;;;;;;;;17.00;37.05;101269.13;5077031;28;824;-63
2022/03/10 06:06:28;;;;;;;;;;;;;;;17.29;36.47;101265.97;5077189;28;797;-60
2022/03/10 06:08:54;;;;;;;;;;;;;;;17.24;36.44;101274.22;5076983;28;785;-62
2022/03/10 06:11:19;;;;;;;;;;;;;;;16.62;37.34;101287.47;5076592;28;876;-62
2022/03/10 06:13:45;;;;;;;;;;;;;;;16.28;38.07;101276.72;5076495;28;1910;-61
2022/03/10 06:16:10;;;;;;;;;;;;;;;17.82;35.63;101292.63;5076426;28;1161;-59
2022/03/10 06:18:36;;;;;;;;;;;;;;;19.62;31.77;101288.00;5076913;28;833;-60
2022/03/10 06:21:01;;;;;;;;;;;;;;;19.14;32.79;101285.66;5077241;28;960;-59
2022/03/10 06:23:27;;;;;;;;;;;;;;;19.59;31.78;101291.31;5076894;28;1426;-60
2022/03/10 06:25:53;;;;;;;;;;;;;;;18.44;33.90;101297.22;5076718;28;793;-61
2022/03/10 06:28:18;;;;;;;;;;;;;;;17.81;35.14;101278.06;5076651;28;808;-60
2022/03/10 06:30:44;;;;;;;;;;;;;;;17.18;36.17;101287.09;5076844;28;850;-60
2022/03/10 06:33:09;;;;;;;;;;;;;;;16.88;36.82;101276.69;5076421;28;830;-60
2022/03/10 06:35:35;;;;;;;;;;;;;;;16.84;36.91;101287.34;5075852;28;1906;-59
2022/03/10 06:38:00;;;;;;;;;;;;;;;16.90;37.00;101288.25;5076647;28;766;-60
2022/03/10 06:40:27;;;;;;;;;;;;;;;17.18;36.59;101292.59;5076600;28;825;-61
2022/03/10 06:42:53;;;;;;;;;;;;;;;17.65;35.58;101296.41;5076884;28;827;-59
2022/03/10 06:45:18;;;;;;;;;;;;;;;17.79;35.30;101294.84;5076599;28;823;-59
2022/03/10 06:47:44;;;;;;;;;;;;;;;17.74;35.05;101294.81;5075925;28;838;-59
2022/03/10 06:50:09;;;;;;;;;;;;;;;17.31;36.17;101296.78;5076026;28;894;-58
2022/03/10 06:52:35;;;;;;;;;;;;;;;17.05;36.50;101296.59;5076247;28;764;-58
2022/03/10 06:55:00;;;;;;;;;;;;;;;17.16;36.31;101304.94;5076135;28;1901;-59
2022/03/10 06:57:26;;;;;;;;;;;;;;;17.05;36.37;101288.38;5076068;28;804;-59
2022/03/10 06:59:51;;;;;;;;;;;;;;;17.03;36.41;101290.56;5076437;28;861;-58
2022/03/10 07:02:17;;;;;;;;;;;;;;;16.91;36.48;101289.91;5075302;28;860;-58
2022/03/10 07:04:42;;;;;;;;;;;;;;;16.96;36.43;101298.22;5075874;28;901;-58
2022/03/10 07:07:08;;;;;;;;;;;;;;;17.00;36.44;101293.00;5075477;28;790;-58
2022/03/10 07:09:33;;;;;;;;;;;;;;;17.37;35.80;101306.72;5076215;28;825;-58
2022/03/10 07:12:00;;;;;;;;;;;;;;;17.55;35.12;101313.69;5076052;28;745;-58
2022/03/10 07:14:25;;;;;;;;;;;;;;;17.05;36.14;101304.84;5075453;28;1984;-58
2022/03/10 07:16:51;;;;;;;;;;;;;;;16.67;36.77;101303.97;5075282;28;1192;-58
2022/03/10 07:19:16;;;;;;;;;;;;;;;16.45;37.36;101314.22;5108564;28;954;-58
2022/03/10 07:21:42;;;;;;;;;;;;;;;16.64;37.09;101304.50;5075942;28;738;-58
2022/03/10 07:24:07;;;;;;;;;;;;;;;17.14;36.05;101298.88;5075889;28;770;-58
2022/03/10 07:26:33;;;;;;;;;;;;;;;17.35;35.34;101302.56;5073768;28;1203;-59
2022/03/10 07:29:01;;;;;;;;;;;;;;;17.44;35.53;101320.22;5071530;28;1363;-58
2022/03/10 07:34:15;;;;;;;;;;;;;;;16.98;35.99;101320.72;5215356;23;6916;-60
2022/03/10 07:36:42;;;;;;;;;;;;;;;16.85;36.30;101311.00;4933873;29;939;-59
2022/03/10 07:39:08;;;;;;;;;;;;;;;16.95;36.28;101318.53;4932550;29;1170;-58
2022/03/10 07:41:33;;;;;;;;;;;;;;;17.18;35.87;101322.81;4932585;28;1259;-59
2022/03/10 07:43:59;;;;;;;;;;;;;;;17.55;35.05;101315.63;4928680;29;1052;-58
2022/03/10 07:46:25;;;;;;;;;;;;;;;17.47;35.17;101325.19;4936547;29;1039;-60
2022/03/10 07:48:50;;;;;;;;;;;;;;;16.90;36.10;101322.06;4937703;29;1292;-58
2022/03/10 07:51:16;;;;;;;;;;;;;;;16.63;36.65;101318.50;4935376;29;1232;-56
2022/03/10 07:53:42;;;;;;;;;;;;;;;16.49;36.71;101318.09;4937380;29;1279;-56
2022/03/10 07:56:07;;;;;;;;;;;;;;;17.01;35.96;101316.63;4937107;28;1985;-58
2022/03/10 07:58:33;;;;;;;;;;;;;;;17.76;34.43;101314.59;4920166;29;890;-58
2022/03/10 08:00:58;;;;;;;;;;;;;;;17.40;35.04;101327.34;4926219;29;834;-59
2022/03/10 08:03:25;;;;;;;;;;;;;;;16.76;36.27;101315.34;4920044;29;956;-59
2022/03/10 08:05:50;;;;;;;;;;;;;;;16.32;37.11;101320.94;4931158;29;908;-59
2022/03/10 08:08:16;;;;;;;;;;;;;;;16.66;36.64;101329.81;4937825;29;1262;-56
2022/03/10 08:10:42;;;;;;;;;;;;;;;17.22;35.42;101325.84;4938363;29;784;-61
2022/03/10 08:13:07;;;;;;;;;;;;;;;17.49;34.82;101333.16;4938348;29;869;-59
2022/03/10 08:15:32;;;;;;;;;;;;;;;17.41;34.80;101332.56;4937937;29;1977;-61
2022/03/10 08:17:58;;;;;;;;;;;;;;;16.84;36.06;101336.78;4926165;29;806;-61
2022/03/10 08:20:23;;;;;;;;;;;;;;;16.68;36.34;101338.59;4925276;29;925;-60
2022/03/10 08:22:49;;;;;;;;;;;;;;;16.72;36.39;101334.22;4941336;28;1271;-61
2022/03/10 08:25:14;;;;;;;;;;;;;;;17.05;35.70;101329.56;4941876;29;791;-59
2022/03/10 08:27:40;;;;;;;;;;;;;;;17.34;35.21;101331.97;4938703;29;786;-61
2022/03/10 08:30:06;;;;;;;;;;;;;;;17.57;34.47;101341.75;4923510;29;763;-61
2022/03/10 08:32:31;;;;;;;;;;;;;;;17.83;34.25;101338.31;4925031;29;751;-61
2022/03/10 08:34:57;;;;;;;;;;;;;;;17.66;34.41;101342.06;4940997;29;1906;-61
2022/03/10 08:37:23;;;;;;;;;;;;;;;17.10;35.42;101339.78;4942175;29;814;-60
2022/03/10 08:39:48;;;;;;;;;;;;;;;16.84;35.65;101335.97;4956670;28;1314;-61
2022/03/10 08:42:13;;;;;;;;;;;;;;;16.99;35.65;101335.31;4960725;28;1117;-62
2022/03/10 08:44:39;;;;;;;;;;;;;;;17.32;35.05;101336.09;4953019;29;728;-61
2022/03/10 08:47:05;;;;;;;;;;;;;;;17.58;34.57;101329.66;4955498;29;1048;-60
2022/03/10 08:49:30;;;;;;;;;;;;;;;17.62;34.33;101341.75;4960816;28;962;-59
2022/03/10 08:51:55;;;;;;;;;;;;;;;17.37;34.69;101339.69;4957167;28;1121;-60
2022/03/10 08:54:21;;;;;;;;;;;;;;;16.78;35.92;101343.34;4960304;28;1906;-59
2022/03/10 08:56:46;;;;;;;;;;;;;;;16.73;35.86;101329.56;4943712;29;772;-58
2022/03/10 08:59:12;;;;;;;;;;;;;;;16.77;36.03;101334.28;4941554;29;818;-58
2022/03/10 09:01:38;;;;;;;;;;;;;;;17.58;34.46;101335.13;4947125;29;839;-58
2022/03/10 09:04:03;;;;;;;;;;;;;;;17.78;33.94;101337.19;4941936;29;946;-59
2022/03/10 09:06:29;;;;;;;;;;;;;;;17.36;34.45;101335.31;4941357;29;835;-59
2022/03/10 09:08:54;;;;;;;;;;;;;;;16.97;35.19;101329.25;4950089;28;1074;-59
2022/03/10 09:11:20;;;;;;;;;;;;;;;16.78;35.53;101332.38;4959692;28;1307;-59
2022/03/10 09:13:48;;;;;;;;;;;;;;;17.18;34.98;101332.97;4959699;28;1097;-59
2022/03/10 09:16:14;;;;;;;;;;;;;;;17.56;34.25;101336.53;4955671;29;1988;-59
2022/03/10 09:18:41;;;;;;;;;;;;;;;17.59;34.10;101328.56;4941615;29;881;-60
2022/03/10 09:21:07;;;;;;;;;;;;;;;16.92;35.04;101332.78;4957915;28;1264;-59
2022/03/10 09:23:32;;;;;;;;;;;;;;;16.54;35.95;101334.63;4958974;28;949;-59
2022/03/10 09:25:58;;;;;;;;;;;;;;;16.52;36.16;101336.78;4959184;28;975;-59
2022/03/10 09:28:23;;;;;;;;;;;;;;;17.00;35.18;101337.81;4959348;28;926;-59
2022/03/10 09:30:48;;;;;;;;;;;;;;;17.12;34.65;101315.63;4958848;28;1212;-58
2022/03/10 09:33:14;;;;;;;;;;;;;;;17.55;34.24;101323.88;4959572;29;1148;-61
2022/03/10 09:35:39;;;;;;;;;;;;;;;17.70;33.77;101326.69;4951097;28;1981;-60
2022/03/10 09:38:05;;;;;;;;;;;;;;;17.69;33.78;101327.78;4940896;28;893;-60
2022/03/10 09:40:30;;;;;;;;;;;;;;;17.11;34.54;101327.72;4941103;29;773;-60
2022/03/10 09:42:56;;;;;;;;;;;;;;;16.72;35.63;101336.97;4940611;29;795;-60
2022/03/10 09:45:21;;;;;;;;;;;;;;;16.90;34.90;101341.28;4940744;29;920;-58
2022/03/10 09:47:47;;;;;;;;;;;;;;;17.56;34.04;101326.34;4946206;29;830;-60
2022/03/10 09:50:17;;;;;;;;;;;;;;;17.62;33.79;101332.69;4941169;29;849;-59
2022/03/10 09:52:42;;;;;;;;;;;;;;;17.09;34.45;101344.44;4940698;29;854;-59
2022/03/10 09:55:08;;;;;;;;;;;;;;;16.64;35.60;101336.63;4941054;29;1902;-57
2022/03/10 09:57:37;;;;;;;;;;;;;;;16.56;35.50;101340.66;4940843;28;884;-56
2022/03/10 10:00:03;;;;;;;;;;;;;;;17.25;34.53;101341.81;4945346;29;805;-57
2022/03/10 10:02:29;;;;;;;;;;;;;;;17.62;33.60;101343.69;4945261;29;810;-57
2022/03/10 10:04:56;;;;;;;;;;;;;;;17.04;34.71;101351.81;4940753;29;801;-57
2022/03/10 10:07:24;;;;;;;;;;;;;;;16.65;35.54;101339.13;4940897;29;831;-56
2022/03/10 10:09:54;;;;;;;;;;;;;;;16.53;35.80;101342.00;4952978;29;778;-60
2022/03/10 10:12:23;;;;;;;;;;;;;;;16.58;35.45;101350.31;4959058;28;776;-57
2022/03/10 10:14:48;;;;;;;;;;;;;;;17.09;34.60;101338.13;4940073;29;1971;-54
2022/03/10 10:17:14;;;;;;;;;;;;;;;17.50;33.72;101340.31;4943065;29;989;-58
2022/03/10 10:19:44;;;;;;;;;;;;;;;17.69;33.23;101352.53;4940630;29;820;-58
2022/03/10 10:22:16;;;;;;;;;;;;;;;17.05;34.40;101335.06;4952575;29;886;-58
2022/03/10 10:25:08;;;;;;;;;;;;;;;16.83;34.79;101337.06;4940225;29;866;-60
2022/03/10 10:27:34;;;;;;;;;;;;;;;16.83;35.12;101337.06;4938586;29;1189;-57
2022/03/10 10:30:00;;;;;;;;;;;;;;;17.36;33.93;101331.72;4940098;29;806;-58
2022/03/10 10:32:52;;;;;;;;;;;;;;;17.49;33.83;101331.25;4946590;29;830;-57
2022/03/10 10:35:21;;;;;;;;;;;;;;;17.59;33.40;101338.75;4939688;29;1956;-57
2022/03/10 10:37:50;;;;;;;;;;;;;;;17.35;34.12;101321.81;4940611;29;1361;-57
2022/03/10 10:40:22;;;;;;;;;;;;;;;17.07;34.32;101337.59;4946175;28;924;-57
2022/03/10 10:42:47;;;;;;;;;;;;;;;16.80;34.99;101329.34;4956972;28;1274;-57
2022/03/10 10:45:26;;;;;;;;;;;;;;;16.72;34.95;101336.16;4957726;28;1291;-57
2022/03/10 10:48:10;;;;;;;;;;;;;;;17.44;33.68;101348.53;4957606;28;1026;-58
2022/03/10 10:50:39;;;;;;;;;;;;;;;18.00;32.78;101330.69;4954816;28;1404;-57
2022/03/10 10:53:05;;;;;;;;;;;;;;;17.55;33.26;101321.13;4957095;28;1224;-57
2022/03/10 10:55:37;;;;;;;;;;;;;;;17.04;34.51;101338.09;4957395;28;1899;-57
2022/03/10 10:58:09;;;;;;;;;;;;;;;16.66;34.98;101329.81;4957385;28;1205;-57
2022/03/10 11:00:45;;;;;;;;;;;;;;;16.56;35.41;101325.03;4957100;28;1100;-57
2022/03/10 11:03:23;;;;;;;;;;;;;;;16.96;34.46;101344.91;4956352;28;1280;-57
2022/03/10 11:05:49;;;;;;;;;;;;;;;17.36;33.85;101353.72;4939627;29;858;-57
2022/03/10 11:08:17;;;;;;;;;;;;;;;17.48;33.36;101342.53;4944745;28;981;-57
2022/03/10 11:10:43;;;;;;;;;;;;;;;17.50;33.41;101337.56;4958106;28;822;-57
2022/03/10 11:13:08;;;;;;;;;;;;;;;17.42;33.76;101345.25;4957699;28;790;-57
2022/03/10 11:15:34;;;;;;;;;;;;;;;17.01;34.18;101341.38;4956473;29;1914;-58
2022/03/10 11:17:59;;;;;;;;;;;;;;;16.80;34.92;101363.13;4942986;29;828;-57
2022/03/10 11:20:25;;;;;;;;;;;;;;;17.15;34.35;101361.78;4939792;29;845;-57
2022/03/10 11:23:03;;;;;;;;;;;;;;;17.37;33.58;101353.44;4939289;28;978;-57
2022/03/10 11:25:38;;;;;;;;;;;;;;;17.67;33.13;101371.25;4953847;28;1220;-57
2022/03/10 11:28:05;;;;;;;;;;;;;;;17.51;33.38;101369.50;4957312;28;1248;-57
2022/03/10 11:30:32;;;;;;;;;;;;;;;17.03;34.55;101375.72;4954768;28;1193;-57
2022/03/10 11:33:00;;;;;;;;;;;;;;;16.75;35.04;101383.13;4943772;28;1034;-57
2022/03/10 11:35:28;;;;;;;;;;;;;;;16.89;34.80;101369.03;4939434;29;1983;-57
2022/03/10 11:37:54;;;;;;;;;;;;;;;17.43;33.77;101385.38;4948822;28;1129;-54
2022/03/10 11:40:37;;;;;;;;;;;;;;;17.88;32.97;101393.34;4957464;28;1112;-56
2022/03/10 11:43:03;;;;;;;;;;;;;;;17.78;32.98;101396.84;4942717;29;822;-58
2022/03/10 11:45:29;;;;;;;;;;;;;;;16.99;34.57;101399.31;4947589;28;974;-55
2022/03/10 11:47:54;;;;;;;;;;;;;;;16.68;35.13;101393.50;4957400;29;1263;-56
2022/03/10 11:50:23;;;;;;;;;;;;;;;16.64;35.35;101392.38;4955977;29;1147;-55
2022/03/10 11:52:59;;;;;;;;;;;;;;;16.86;34.77;101377.75;4958627;28;786;-57
2022/03/10 11:55:37;;;;;;;;;;;;;;;17.43;33.79;101392.78;4960954;28;1902;-56
2022/03/10 11:58:05;;;;;;;;;;;;;;;17.76;33.20;101391.63;4961131;28;918;-55
2022/03/10 12:00:39;;;;;;;;;;;;;;;17.84;32.97;101397.72;4960031;28;1197;-58
2022/03/10 12:03:04;;;;;;;;;;;;;;;17.52;33.67;101409.66;4942430;29;846;-57
2022/03/10 12:05:48;;;;;;;;;;;;;;;17.06;34.34;101397.19;4957488;28;917;-57
2022/03/10 12:08:14;;;;;;;;;;;;;;;16.99;34.29;101393.81;4952848;28;781;-57
2022/03/10 12:10:39;;;;;;;;;;;;;;;17.00;34.32;101403.75;4940950;29;1184;-57
2022/03/10 12:13:20;;;;;;;;;;;;;;;17.44;33.98;101395.28;4942554;28;749;-56
2022/03/10 12:15:45;;;;;;;;;;;;;;;17.63;33.45;101397.63;4946561;29;1907;-57
2022/03/10 12:18:14;;;;;;;;;;;;;;;17.73;33.34;101411.41;4945980;28;746;-57
2022/03/10 12:20:41;;;;;;;;;;;;;;;17.53;33.76;101419.53;4948282;29;839;-57
2022/03/10 12:23:07;;;;;;;;;;;;;;;17.17;34.24;101409.09;4942455;29;930;-57
2022/03/10 12:25:42;;;;;;;;;;;;;;;17.09;34.58;101402.16;4942668;29;793;-57
2022/03/10 12:28:07;;;;;;;;;;;;;;;17.12;34.38;101413.72;4941322;28;970;-57
2022/03/10 12:30:33;;;;;;;;;;;;;;;17.22;34.31;101402.81;4944634;29;860;-58
2022/03/10 12:32:59;;;;;;;;;;;;;;;17.91;33.14;101407.44;4946383;29;1558;-57
2022/03/10 12:35:28;;;;;;;;;;;;;;;17.74;33.28;101410.34;4943937;29;1906;-57
2022/03/10 12:37:54;;;;;;;;;;;;;;;17.12;34.53;101397.25;4959920;28;834;-57
2022/03/10 12:40:20;;;;;;;;;;;;;;;16.84;35.06;101440.34;4959969;29;1391;-57
2022/03/10 12:42:46;;;;;;;;;;;;;;;16.69;35.19;101428.13;4960963;28;792;-59
2022/03/10 12:45:11;;;;;;;;;;;;;;;16.97;34.75;101426.25;4960414;28;1026;-57
2022/03/10 12:47:38;;;;;;;;;;;;;;;17.44;33.90;101427.44;4958662;29;1062;-57
2022/03/10 12:50:03;;;;;;;;;;;;;;;17.73;33.50;101416.91;4946634;28;831;-56
2022/03/10 12:52:29;;;;;;;;;;;;;;;17.90;33.21;101427.75;4939865;29;1115;-56
2022/03/10 12:54:58;;;;;;;;;;;;;;;17.83;33.11;101434.59;4946664;29;1976;-57
2022/03/10 12:57:23;;;;;;;;;;;;;;;17.24;34.05;101439.13;4952947;28;1125;-56